Aeroporto :
LOGIN :

Iscrizione | Disclaimer

   EN    FR    IT 

 










Sommario :    VFR   VFR Marginale   IFR   IFR Intensivo   IFR Molto Intensivo
Visibilità : 
Base nubi : 
>= 8 km
>= 3000ft
5 / 8 km
1000 / 3000 ft
1500m / 5 km
500 / 1000 ft
800 / 1500m
200 / 500 ft
< 800m
< 200 ft
Simboli :   Temporali  Nebbia  Neve Forte  Precipitazioni Forti  Vento > 20 kt
SIGMETs :   Varie  Temporali  Ghiacco  Turbolenza  Onda orograficha  Ceneri Vulcaniche






- Altitudine del aeroporto : 65 ft
- Codice IATA : PIK


EGPK - Glasgow Prestwick

ULTIMO METAR :
  • 192220Z 19014KT 9999 FEW014 SCT025 10/08 Q0998

METARs OBSOLETI :
  • 192150Z 20013KT 9999 -RA SCT014 BKN021 10/08 Q0999
  • 192120Z 19015KT 9999 -RA SCT014 BKN021 10/08 Q0999
  • 192050Z 19016KT 9999 -RA SCT014 BKN021 10/08 Q0999
  • 192020Z 19015KT 9999 -RA SCT014 BKN021 10/08 Q0999
  • 191950Z 19016KT 9999 -RA SCT014 BKN025 10/08 Q0999

TAF TAF EGPK
Valido dal 19 a 18 ore il 20 a 18 ore UTC


191655Z 1918/2018 18014KT 9999 FEW014 SCT025
TEMPO 1918/1924 19020G30KT 6000 RA BKN014
PROB30
TEMPO 1918/1922 20028G40KT 4000 RADZ +RA BKN007
BECMG 1922/2001 24009KT
PROB40
TEMPO 2004/2010 6000 RA SHRA BKN009
BECMG 2010/2013 26015G25KT
PROB40
TEMPO 2011/2018 27022G38KT 5000 SHRA SHGS BKN014CB



MetMap, La meteo Aeronautica in un colpo d'occhio ! - Copyright ORBIFLY Dicembre 2007 - Disclaimer

ORBIFLY MET'MAP TEAM :

Programmazione e sviluppo : Alexandra Zaïnal
Concezione : Baudouin d'Aumeries
Aiuto per la programmazione : Marc-Olivier Méhu
Supporto tecnico e logistico : Manuel Goepfert
Aiuto per la traduzione : Arnaldo La Scala

Contatto : metmap@orbifly.com




FONTI E CREDITI :

   NOAA